Main page
METAR-TAF:

METAR-TAF

Airports :

Pskov Airport

Pskov, Russia

latitude: 57-47-06N, longitude: 028-23-54E, elevation: 47 m

Current weather observation

The report was made 1 hour and 1 minutes ago, at 02:00 UTC
Wind 2 kt from the East/Southeast
Temperature 2°C
Humidity 75%
Pressure 1030 hPa
Visibility: 6000 m

METAR: ULOO 230200Z AUTO 11001MPS 6000 // NSC 02/M02 Q1030 RMK QFE768

Time: 06:01 (03:01 UTC)

Forecast

The report was made 16 hours and 1 minutes ago, at 11:00 UTC
Forecast valid from 22 at 12 UTC to 22 at 21 UTC
Wind 6 kt from the Southwest
Visibility 10 km or more
Scattered clouds at a height of 3000 ft
Temporary
from 22 at 12 UTC to 22 at 21 UTC
Wind 6 kt from the West with gusts up to 16 kt

TAF: ULOO 221100Z 2212/2221 23003MPS 9999 SCT030 TEMPO 2212/2221 26003G08MPS

Weather observations and forecasts of more than 4000 airports (METAR and TAF reports).

The available stations are represented by yellow and red dots on the map.

Hover mouse over dot to see the name of the station.

Then click to see weather observations and forecasts.

To change the map : click on the green buttons with a black cross to zoom in, on the green button with a dash to zoom out, or on the green arrows for adjacent maps.


METAR-TAF: